Time;durP1;ratioP1;P1;durP2;ratioP2;P2;SDS_P1;SDS_P2;PMS_P1;PMS_P2;Temp;Humidity;BMP_temperature;BMP_pressure;BME280_temperature;BME280_humidity;BME280_pressure;Samples;Min_cycle;Max_cycle;Signal;HPM_P1;HPM_P2
2023/04/04 00:00:53;;;;;;;3.17;1.75;;;;;;;9.71;28.91;99778.69;4417883;32;34387;-59
2023/04/04 00:03:20;;;;;;;1.30;0.75;;;;;;;10.07;28.05;99780.53;4431173;32;33698;-58
2023/04/04 00:05:50;;;;;;;1.90;1.12;;;;;;;10.17;28.20;99775.38;4420508;32;34162;-59
2023/04/04 00:08:17;;;;;;;0.80;0.80;;;;;;;10.30;28.14;99783.41;4418291;32;34283;-59
2023/04/04 00:10:45;;;;;;;2.78;1.55;;;;;;;10.12;27.88;99777.56;4417328;32;33533;-59
2023/04/04 00:13:12;;;;;;;2.83;1.77;;;;;;;10.08;28.25;99771.56;4420767;32;33977;-60
2023/04/04 00:15:40;;;;;;;1.30;1.20;;;;;;;10.07;28.77;99777.00;4419424;32;34444;-59
2023/04/04 00:18:08;;;;;;;1.12;1.00;;;;;;;10.03;28.55;99785.25;4420480;32;33830;-61
2023/04/04 00:20:36;;;;;;;2.90;1.42;;;;;;;9.88;28.87;99775.66;4419052;32;33280;-60
2023/04/04 00:23:03;;;;;;;2.45;1.50;;;;;;;9.87;29.05;99781.97;4433332;32;34631;-60
2023/04/04 00:25:31;;;;;;;1.65;0.93;;;;;;;9.91;28.91;99793.31;4425367;32;34809;-61
2023/04/04 00:27:59;;;;;;;1.02;0.93;;;;;;;9.89;29.03;99788.06;4427153;32;35771;-59
2023/04/04 00:30:30;;;;;;;21.08;1.80;;;;;;;9.72;29.35;99791.91;4424602;32;33580;-59
2023/04/04 00:33:00;;;;;;;2.60;1.25;;;;;;;9.65;29.22;99792.47;4422567;32;34913;-59
2023/04/04 00:35:28;;;;;;;2.62;1.35;;;;;;;9.66;29.64;99796.84;4420740;32;33795;-59
2023/04/04 00:37:55;;;;;;;1.40;1.30;;;;;;;9.66;29.57;99794.16;4418021;32;34112;-59
2023/04/04 00:40:23;;;;;;;2.97;1.55;;;;;;;9.66;29.63;99791.50;4416563;32;33553;-61
2023/04/04 00:42:51;;;;;;;1.98;1.12;;;;;;;9.61;29.47;99791.84;4418904;32;32525;-59
2023/04/04 00:45:18;;;;;;;1.10;0.98;;;;;;;9.63;29.59;99802.41;4416957;32;33749;-59
2023/04/04 00:47:46;;;;;;;4.75;2.15;;;;;;;9.51;29.93;99804.13;4419476;32;33854;-59
2023/04/04 00:50:14;;;;;;;1.67;1.42;;;;;;;9.50;29.83;99799.72;4427907;32;33456;-60
2023/04/04 00:52:41;;;;;;;1.10;1.00;;;;;;;9.46;29.83;99796.41;4428170;32;32856;-61
2023/04/04 00:55:09;;;;;;;1.52;1.42;;;;;;;9.39;30.07;99799.62;4419888;32;34191;-59
2023/04/04 00:57:37;;;;;;;1.00;0.82;;;;;;;9.25;30.07;99793.44;4420223;32;33825;-60
2023/04/04 01:00:06;;;;;;;2.08;1.23;;;;;;;9.16;30.07;99791.38;4418473;32;33342;-60
2023/04/04 01:02:34;;;;;;;1.73;1.08;;;;;;;9.18;30.14;99784.12;4420730;32;34098;-59
2023/04/04 01:05:02;;;;;;;1.10;0.85;;;;;;;9.20;29.98;99782.19;4408464;32;34114;-59
2023/04/04 01:07:30;;;;;;;0.80;0.80;;;;;;;9.15;30.04;99775.44;4423254;32;33835;-59
2023/04/04 01:10:00;;;;;;;4.45;1.98;;;;;;;9.07;30.12;99766.16;4421514;32;34525;-59
2023/04/04 01:12:28;;;;;;;3.35;1.70;;;;;;;9.00;30.03;99761.34;4422076;32;32771;-59
2023/04/04 01:14:56;;;;;;;2.45;1.85;;;;;;;8.97;30.11;99756.22;4415544;32;32605;-61
2023/04/04 01:17:23;;;;;;;0.98;0.88;;;;;;;8.65;30.84;99756.56;4421169;32;33780;-60
2023/04/04 01:20:07;;;;;;;2.45;1.62;;;;;;;8.73;30.55;99748.91;4422629;32;34444;-60
2023/04/04 01:22:37;;;;;;;6.65;1.52;;;;;;;8.86;30.37;99740.94;4426305;32;34662;-60
2023/04/04 01:25:05;;;;;;;1.40;1.20;;;;;;;8.81;30.66;99735.91;4422818;32;34021;-60
2023/04/04 01:27:34;;;;;;;1.37;1.25;;;;;;;8.73;30.50;99740.91;4417726;32;33532;-60
2023/04/04 01:30:04;;;;;;;1.17;0.80;;;;;;;8.82;30.61;99729.59;4412969;32;33530;-59
2023/04/04 01:32:42;;;;;;;2.80;1.17;;;;;;;8.82;30.58;99731.41;4423989;32;33855;-61
2023/04/04 01:35:35;;;;;;;5.78;1.48;;;;;;;8.71;31.93;99725.94;4418445;32;33542;-59
2023/04/04 01:38:17;;;;;;;2.92;1.85;;;;;;;8.67;30.87;99722.66;4419220;32;35112;-59
2023/04/04 01:40:51;;;;;;;2.53;1.50;;;;;;;8.50;31.98;99723.75;4421868;32;35285;-59
2023/04/04 01:43:19;;;;;;;1.33;1.23;;;;;;;8.39;32.37;99715.62;4423227;32;32399;-60
2023/04/04 01:45:48;;;;;;;2.05;1.85;;;;;;;8.14;32.68;99705.66;4422160;32;33854;-60
2023/04/04 01:48:16;;;;;;;6.40;1.58;;;;;;;7.88;33.36;99704.69;4420696;32;34001;-59
2023/04/04 01:50:44;;;;;;;1.85;1.75;;;;;;;8.42;32.03;99702.06;4427324;32;33626;-60
2023/04/04 01:53:12;;;;;;;0.70;0.70;;;;;;;8.29;32.35;99693.16;4425300;32;33019;-62
2023/04/04 01:55:41;;;;;;;1.83;0.98;;;;;;;8.12;32.14;99684.47;4421953;32;35006;-62
2023/04/04 01:58:09;;;;;;;4.95;1.15;;;;;;;8.49;32.13;99697.19;4425384;32;34243;-61
2023/04/04 02:00:36;;;;;;;1.90;1.00;;;;;;;8.35;32.74;99692.75;4428448;32;33627;-60
2023/04/04 02:03:04;;;;;;;2.75;1.77;;;;;;;8.51;31.51;99681.94;4415643;32;33389;-60
2023/04/04 02:05:32;;;;;;;1.12;0.98;;;;;;;8.20;32.69;99675.09;4422292;32;33963;-59
2023/04/04 02:08:00;;;;;;;1.12;1.05;;;;;;;8.17;32.52;99671.66;4424327;32;34229;-61
2023/04/04 02:10:29;;;;;;;1.15;1.05;;;;;;;7.45;35.84;99665.66;4418874;32;33803;-60
2023/04/04 02:12:56;;;;;;;0.82;0.82;;;;;;;7.44;34.33;99665.75;4422357;32;33991;-60
2023/04/04 02:15:24;;;;;;;1.95;1.60;;;;;;;8.21;32.66;99655.47;4420512;32;34325;-60
2023/04/04 02:17:52;;;;;;;0.73;0.70;;;;;;;7.48;34.87;99653.97;4425977;32;33996;-59
2023/04/04 02:20:20;;;;;;;1.10;0.93;;;;;;;7.82;33.36;99652.66;4422313;32;33310;-60
2023/04/04 02:22:52;;;;;;;0.98;0.95;;;;;;;7.50;34.82;99653.88;4430689;32;33865;-60
2023/04/04 02:25:21;;;;;;;0.50;0.50;;;;;;;7.34;34.83;99657.50;4421560;32;33896;-60
2023/04/04 02:27:49;;;;;;;1.20;0.88;;;;;;;7.84;34.11;99647.22;4421488;32;34006;-60
2023/04/04 02:30:18;;;;;;;3.65;2.10;;;;;;;7.46;34.78;99645.22;4412355;32;37615;-59
2023/04/04 02:32:47;;;;;;;3.10;1.37;;;;;;;7.74;34.85;99638.97;4415966;32;34042;-60
2023/04/04 02:35:16;;;;;;;0.85;0.82;;;;;;;7.59;34.05;99637.31;4437233;32;33786;-60
2023/04/04 02:37:47;;;;;;;1.52;1.08;;;;;;;8.31;32.50;99633.41;4422482;32;33882;-59
2023/04/04 02:40:18;;;;;;;0.60;0.60;;;;;;;8.58;31.50;99638.72;4422438;32;33538;-59
2023/04/04 02:42:45;;;;;;;2.30;1.52;;;;;;;8.40;31.92;99639.97;4421603;32;33854;-60
2023/04/04 02:45:13;;;;;;;0.80;0.80;;;;;;;8.60;31.53;99638.62;4421808;32;34117;-58
2023/04/04 02:47:42;;;;;;;1.02;0.95;;;;;;;8.12;32.64;99641.81;4431180;32;33943;-61
2023/04/04 02:50:10;;;;;;;1.23;1.12;;;;;;;8.36;32.07;99641.97;4431303;32;34856;-60
2023/04/04 02:52:38;;;;;;;1.70;1.33;;;;;;;8.07;32.65;99645.72;4413863;32;33914;-61
2023/04/04 02:55:07;;;;;;;3.10;1.50;;;;;;;7.80;33.77;99637.72;4429116;32;34904;-59
2023/04/04 02:57:35;;;;;;;2.35;0.93;;;;;;;7.99;33.43;99643.53;4430939;32;35062;-60
2023/04/04 03:00:03;;;;;;;1.37;0.75;;;;;;;7.99;32.90;99651.53;4420567;32;33484;-61
2023/04/04 03:02:31;;;;;;;0.80;0.80;;;;;;;8.28;33.17;99644.31;4415653;32;33625;-59
2023/04/04 03:04:59;;;;;;;2.47;1.77;;;;;;;7.75;35.62;99647.81;4415043;32;33693;-59
2023/04/04 03:07:26;;;;;;;2.83;1.83;;;;;;;8.04;32.15;99651.25;4436462;32;34130;-59
2023/04/04 03:09:54;;;;;;;1.67;1.05;;;;;;;8.04;32.63;99660.09;4428446;32;33744;-60
2023/04/04 03:12:21;;;;;;;2.28;1.02;;;;;;;8.30;32.68;99663.69;4419641;32;33840;-60
2023/04/04 03:14:49;;;;;;;0.75;0.75;;;;;;;8.34;32.12;99657.19;4426044;32;34437;-61
2023/04/04 03:17:17;;;;;;;1.15;0.98;;;;;;;8.26;32.95;99658.69;4419846;32;33702;-60
2023/04/04 03:19:45;;;;;;;1.52;1.27;;;;;;;8.36;31.94;99654.44;4421011;32;32179;-60
2023/04/04 03:22:12;;;;;;;1.85;1.08;;;;;;;8.23;32.50;99664.22;4418073;32;33448;-61
2023/04/04 03:24:40;;;;;;;2.72;1.50;;;;;;;8.19;32.88;99668.06;4421039;32;34729;-59
2023/04/04 03:27:07;;;;;;;0.85;0.85;;;;;;;8.58;30.99;99664.56;4421165;32;33934;-60
2023/04/04 03:29:35;;;;;;;1.00;0.88;;;;;;;8.58;31.07;99667.22;4419724;32;33270;-61
2023/04/04 03:32:03;;;;;;;1.92;1.05;;;;;;;8.80;30.40;99663.97;4418795;32;33681;-61
2023/04/04 03:34:30;;;;;;;3.20;1.15;;;;;;;9.03;30.16;99657.03;4421551;32;34075;-60
2023/04/04 03:36:58;;;;;;;0.93;0.70;;;;;;;9.08;30.10;99663.75;4418891;32;34001;-59
2023/04/04 03:39:28;;;;;;;0.80;0.80;;;;;;;8.95;30.35;99668.22;4420679;32;32199;-60
2023/04/04 03:41:56;;;;;;;0.73;0.73;;;;;;;8.79;30.53;99675.56;4420486;32;32440;-60
2023/04/04 03:44:24;;;;;;;2.62;1.55;;;;;;;8.56;31.23;99675.31;4427940;32;33949;-59
2023/04/04 03:46:52;;;;;;;1.12;1.02;;;;;;;8.46;31.48;99676.06;4435041;32;33495;-60
2023/04/04 03:49:20;;;;;;;2.37;1.80;;;;;;;8.36;31.64;99681.97;4427021;32;34511;-59
2023/04/04 03:51:47;;;;;;;2.83;1.30;;;;;;;8.29;31.64;99683.34;4429560;32;33690;-60
2023/04/04 03:54:16;;;;;;;1.25;1.15;;;;;;;8.16;31.93;99677.09;4427944;32;33737;-59
2023/04/04 03:56:43;;;;;;;1.52;1.20;;;;;;;8.15;32.07;99676.25;4415930;32;90349;-60
2023/04/04 03:59:11;;;;;;;1.48;1.33;;;;;;;8.24;31.82;99679.25;4429930;32;33326;-60
2023/04/04 04:01:39;;;;;;;1.20;1.10;;;;;;;8.41;31.59;99681.72;4417663;32;33751;-61
2023/04/04 04:04:07;;;;;;;1.40;1.02;;;;;;;8.42;31.53;99679.91;4419192;32;34983;-62
2023/04/04 04:06:35;;;;;;;2.78;1.90;;;;;;;8.49;31.32;99681.19;4419314;32;34150;-60
2023/04/04 04:09:03;;;;;;;0.98;0.93;;;;;;;8.45;31.31;99669.88;4420621;32;33342;-60
2023/04/04 04:11:30;;;;;;;1.02;0.93;;;;;;;8.38;31.42;99672.09;4420052;32;33775;-61
2023/04/04 04:14:02;;;;;;;0.77;0.77;;;;;;;8.38;31.31;99668.56;4419496;32;32654;-60
2023/04/04 04:16:30;;;;;;;3.17;1.27;;;;;;;8.37;31.39;99673.00;4421517;32;33697;-61
2023/04/04 04:18:58;;;;;;;5.37;2.72;;;;;;;8.41;31.44;99673.72;4419127;32;33781;-59
2023/04/04 04:21:27;;;;;;;2.12;1.48;;;;;;;8.42;31.43;99666.56;4420961;32;33465;-59
2023/04/04 04:23:55;;;;;;;1.67;1.35;;;;;;;8.38;31.93;99669.44;4420581;32;35163;-61
2023/04/04 04:26:22;;;;;;;1.73;1.60;;;;;;;8.33;31.74;99667.97;4421334;32;34248;-60
2023/04/04 04:28:50;;;;;;;2.37;1.20;;;;;;;8.45;31.76;99666.34;4421501;32;34606;-59
2023/04/04 04:31:18;;;;;;;0.82;0.82;;;;;;;8.40;31.46;99667.50;4423964;32;33824;-61
2023/04/04 04:33:47;;;;;;;1.45;1.35;;;;;;;8.34;32.14;99667.00;4420657;32;34046;-63
2023/04/04 04:36:16;;;;;;;2.05;0.90;;;;;;;8.24;31.91;99658.78;4421612;32;31731;-69
2023/04/04 04:38:44;;;;;;;1.45;1.35;;;;;;;8.33;31.81;99670.66;4421749;32;34591;-62
2023/04/04 04:41:12;;;;;;;0.85;0.80;;;;;;;8.34;31.59;99667.00;4421899;32;33689;-65
2023/04/04 04:43:40;;;;;;;2.05;1.20;;;;;;;8.21;33.12;99660.78;4420980;32;34139;-60
2023/04/04 04:46:08;;;;;;;0.90;0.90;;;;;;;8.05;32.75;99656.47;4423087;32;34099;-60
2023/04/04 04:48:35;;;;;;;1.65;1.27;;;;;;;7.79;34.14;99662.66;4420398;32;33430;-60
2023/04/04 04:51:04;;;;;;;1.85;1.60;;;;;;;7.80;33.14;99659.91;4422105;32;33560;-62
2023/04/04 04:53:34;;;;;;;1.75;1.65;;;;;;;7.70;33.82;99669.41;4420542;32;34281;-60
2023/04/04 04:56:02;;;;;;;2.28;1.52;;;;;;;7.67;33.68;99657.19;4434166;32;34115;-60
2023/04/04 04:58:31;;;;;;;1.25;1.15;;;;;;;7.54;34.96;99653.56;4437263;32;34857;-60
2023/04/04 05:00:59;;;;;;;2.03;1.25;;;;;;;7.68;34.03;99661.53;4418920;32;34756;-60
2023/04/04 05:03:28;;;;;;;1.27;1.15;;;;;;;7.56;34.96;99664.13;4414152;32;34067;-60
2023/04/04 05:05:57;;;;;;;1.87;1.70;;;;;;;7.52;35.06;99663.47;4422096;32;33018;-60
2023/04/04 05:08:24;;;;;;;0.85;0.85;;;;;;;7.61;34.86;99668.22;4420015;32;34595;-60
2023/04/04 05:10:53;;;;;;;1.30;1.20;;;;;;;7.67;34.54;99659.84;4421745;32;33615;-61
2023/04/04 05:13:22;;;;;;;1.37;1.15;;;;;;;7.37;36.09;99659.09;4421933;32;33702;-59
2023/04/04 05:15:50;;;;;;;1.65;1.17;;;;;;;7.70;34.02;99664.97;4422323;32;34151;-61
2023/04/04 05:18:18;;;;;;;0.95;0.95;;;;;;;7.88;33.88;99659.41;4422312;32;33545;-60
2023/04/04 05:20:51;;;;;;;1.67;1.58;;;;;;;7.84;34.18;99660.56;4422448;32;31905;-60
2023/04/04 05:23:20;;;;;;;1.65;1.52;;;;;;;7.88;33.51;99660.25;4421592;32;34000;-61
2023/04/04 05:25:49;;;;;;;1.67;1.42;;;;;;;7.90;33.35;99657.50;4421708;32;33934;-59
2023/04/04 05:28:19;;;;;;;8.68;1.90;;;;;;;7.86;33.53;99663.97;4421446;32;34739;-61
2023/04/04 05:30:47;;;;;;;1.15;1.05;;;;;;;7.87;33.71;99660.34;4420731;32;34907;-61
2023/04/04 05:33:15;;;;;;;2.83;1.55;;;;;;;7.76;33.65;99660.19;4416173;32;35158;-60
2023/04/04 05:35:43;;;;;;;1.02;0.93;;;;;;;7.65;33.82;99664.41;4420804;32;33986;-59
2023/04/04 05:38:12;;;;;;;1.50;1.23;;;;;;;7.72;34.39;99659.53;4421731;32;33447;-59
2023/04/04 05:40:39;;;;;;;4.20;2.05;;;;;;;7.56;34.93;99656.13;4420244;32;34300;-59
2023/04/04 05:43:08;;;;;;;0.90;0.88;;;;;;;7.23;34.89;99663.50;4418537;32;34051;-60
2023/04/04 05:45:36;;;;;;;2.60;1.83;;;;;;;7.52;34.60;99663.47;4420399;32;34039;-60
2023/04/04 05:48:07;;;;;;;0.90;0.90;;;;;;;7.49;34.44;99679.66;4420526;32;33648;-60
2023/04/04 05:50:36;;;;;;;1.40;1.30;;;;;;;7.59;34.40;99675.44;4421068;32;34984;-63
2023/04/04 05:53:04;;;;;;;0.70;0.70;;;;;;;7.78;34.48;99679.59;4420116;32;35348;-61
2023/04/04 05:55:32;;;;;;;1.20;0.80;;;;;;;7.46;34.93;99683.34;4421325;32;33835;-60
2023/04/04 05:58:00;;;;;;;1.75;1.02;;;;;;;7.90;33.91;99677.00;4419621;32;33623;-61
2023/04/04 06:00:29;;;;;;;1.25;1.15;;;;;;;8.06;33.12;99678.69;4412450;32;35635;-62
2023/04/04 06:02:58;;;;;;;1.35;1.25;;;;;;;7.94;33.91;99677.66;4419276;32;34744;-61
2023/04/04 06:05:26;;;;;;;0.62;0.62;;;;;;;7.82;34.72;99687.28;4420877;32;35057;-62
2023/04/04 06:07:54;;;;;;;0.95;0.85;;;;;;;8.08;34.69;99688.25;4420890;32;33552;-61
2023/04/04 06:10:22;;;;;;;3.37;1.67;;;;;;;7.64;34.48;99686.66;4419893;32;34986;-62
2023/04/04 06:12:50;;;;;;;0.65;0.65;;;;;;;8.40;33.77;99688.81;4420433;32;35019;-62
2023/04/04 06:15:17;;;;;;;0.80;0.80;;;;;;;7.92;34.43;99693.72;4419770;32;34233;-64
2023/04/04 06:17:45;;;;;;;1.65;1.55;;;;;;;8.66;32.29;99682.72;4416680;32;33741;-62
2023/04/04 06:20:13;;;;;;;1.08;1.00;;;;;;;9.11;32.23;99678.69;4420238;32;34709;-61
2023/04/04 06:22:41;;;;;;;1.58;1.48;;;;;;;9.20;32.07;99682.53;4420914;32;32365;-62
2023/04/04 06:25:09;;;;;;;1.27;1.17;;;;;;;9.16;33.10;99686.38;4422088;32;33792;-62
2023/04/04 06:27:37;;;;;;;2.28;1.62;;;;;;;9.41;32.04;99681.03;4420324;32;33345;-62
2023/04/04 06:30:06;;;;;;;1.58;1.25;;;;;;;8.84;35.61;99684.12;4417940;32;34653;-62
2023/04/04 06:32:37;;;;;;;1.45;1.15;;;;;;;9.18;31.79;99668.44;4415867;32;34387;-62
2023/04/04 06:35:06;;;;;;;2.62;1.35;;;;;;;9.51;34.92;99659.84;4419925;32;33332;-62
2023/04/04 06:37:35;;;;;;;1.30;1.10;;;;;;;10.30;30.66;99641.63;4417413;32;33561;-62
2023/04/04 06:40:04;;;;;;;1.92;0.95;;;;;;;10.24;32.08;99633.06;4421322;32;33750;-62
2023/04/04 06:42:32;;;;;;;0.77;0.77;;;;;;;9.55;30.47;99623.94;4418693;32;33072;-61
2023/04/04 06:45:00;;;;;;;1.40;0.88;;;;;;;9.02;34.18;99631.25;4423430;32;33556;-63
2023/04/04 06:47:29;;;;;;;3.00;1.67;;;;;;;9.66;32.66;99636.50;4429172;32;33601;-62
2023/04/04 06:49:56;;;;;;;0.70;0.70;;;;;;;9.33;34.58;99619.28;4420609;32;33641;-62
2023/04/04 06:52:24;;;;;;;2.05;1.30;;;;;;;8.91;31.45;99631.19;4419060;32;35495;-60
2023/04/04 06:54:52;;;;;;;0.75;0.75;;;;;;;8.61;32.91;99621.66;4427979;32;34023;-63
2023/04/04 06:57:19;;;;;;;0.80;0.80;;;;;;;9.43;30.29;99627.47;4420994;32;33732;-61
2023/04/04 06:59:47;;;;;;;0.60;0.60;;;;;;;9.18;31.19;99642.59;4421457;32;34777;-62
2023/04/04 07:02:15;;;;;;;1.23;1.12;;;;;;;8.68;32.13;99643.44;4419392;32;35286;-62
2023/04/04 07:04:42;;;;;;;0.93;0.82;;;;;;;8.78;30.18;99636.50;4415855;32;33742;-62
2023/04/04 07:07:10;;;;;;;1.08;0.95;;;;;;;8.92;32.12;99636.41;4419989;32;33328;-62
2023/04/04 07:09:38;;;;;;;0.88;0.88;;;;;;;8.95;32.38;99638.84;4421281;32;33738;-61
2023/04/04 07:12:06;;;;;;;1.12;0.95;;;;;;;8.54;32.23;99647.91;4417689;32;33970;-62
2023/04/04 07:14:33;;;;;;;1.40;1.30;;;;;;;9.17;30.18;99638.19;4424392;32;33865;-62
2023/04/04 07:17:01;;;;;;;1.08;0.95;;;;;;;9.41;29.73;99643.63;4420101;32;33623;-61
2023/04/04 07:19:40;;;;;;;2.12;1.35;;;;;;;9.10;30.31;99652.94;4418017;32;34740;-63
2023/04/04 07:22:08;;;;;;;1.35;1.12;;;;;;;8.85;30.46;99651.97;4420092;32;33804;-62
2023/04/04 07:24:35;;;;;;;2.58;1.15;;;;;;;8.31;33.43;99649.41;4429476;32;34550;-63
2023/04/04 07:27:03;;;;;;;1.17;1.00;;;;;;;9.32;29.46;99655.81;4420827;32;33485;-62
2023/04/04 07:29:30;;;;;;;2.80;1.27;;;;;;;9.37;30.14;99655.47;4421482;32;33801;-62
2023/04/04 07:31:58;;;;;;;1.50;1.40;;;;;;;8.76;32.10;99662.44;4416847;32;32948;-62
2023/04/04 07:34:25;;;;;;;1.05;0.93;;;;;;;8.54;34.44;99665.69;4418913;32;35384;-61
2023/04/04 07:36:54;;;;;;;1.65;0.65;;;;;;;8.76;34.13;99657.09;4422118;32;33421;-63
2023/04/04 07:39:22;;;;;;;1.15;0.73;;;;;;;9.03;33.03;99652.53;4420101;32;33643;-62
2023/04/04 07:41:49;;;;;;;1.02;0.75;;;;;;;9.74;32.09;99650.16;4421551;32;35215;-62
2023/04/04 07:44:17;;;;;;;2.00;1.35;;;;;;;9.59;32.29;99653.94;4420265;32;34345;-63
2023/04/04 07:46:44;;;;;;;3.08;1.10;;;;;;;9.67;31.37;99654.25;4420662;32;33532;-62
2023/04/04 07:49:22;;;;;;;3.20;1.83;;;;;;;8.98;32.16;99662.66;4421528;32;32553;-63
2023/04/04 07:51:49;;;;;;;1.92;1.50;;;;;;;9.56;33.17;99653.19;4426988;32;35322;-62
2023/04/04 07:54:17;;;;;;;4.43;1.87;;;;;;;9.76;32.71;99651.78;4417161;32;32885;-61
2023/04/04 07:56:45;;;;;;;2.35;1.37;;;;;;;10.08;31.14;99653.91;4418654;32;34337;-62
2023/04/04 07:59:12;;;;;;;3.65;1.65;;;;;;;10.25;30.83;99663.34;4418171;32;34778;-63
2023/04/04 08:01:40;;;;;;;1.15;1.05;;;;;;;10.82;30.02;99659.03;4423294;32;34887;-63
2023/04/04 08:04:07;;;;;;;2.35;1.95;;;;;;;10.05;32.71;99654.12;4420860;32;35115;-62
2023/04/04 08:06:35;;;;;;;1.42;1.17;;;;;;;10.05;31.51;99648.78;4418364;32;32283;-61
2023/04/04 08:09:03;;;;;;;1.85;1.70;;;;;;;10.17;32.31;99661.22;4417085;32;34881;-62
2023/04/04 08:11:32;;;;;;;1.05;0.95;;;;;;;10.88;30.08;99651.41;4418898;32;33873;-61
2023/04/04 08:13:59;;;;;;;2.60;1.65;;;;;;;10.88;29.03;99646.06;4418416;32;34100;-63
2023/04/04 08:16:26;;;;;;;5.28;2.00;;;;;;;10.65;31.75;99646.97;4418106;32;35240;-62
2023/04/04 08:18:54;;;;;;;4.05;1.80;;;;;;;10.01;31.10;99650.81;4416444;32;32799;-60
2023/04/04 08:21:22;;;;;;;2.17;1.25;;;;;;;11.34;29.20;99655.00;4421892;32;34216;-62
2023/04/04 08:23:50;;;;;;;5.75;1.85;;;;;;;11.40;30.37;99667.91;4417523;32;32856;-63
2023/04/04 08:26:18;;;;;;;3.10;2.17;;;;;;;11.83;29.01;99664.44;4418582;32;33717;-62
2023/04/04 08:28:45;;;;;;;2.37;1.48;;;;;;;12.26;27.92;99666.31;4420682;32;35023;-63
2023/04/04 08:31:13;;;;;;;2.55;1.85;;;;;;;12.30;27.65;99659.72;4421139;32;34720;-61
2023/04/04 08:33:41;;;;;;;1.55;1.17;;;;;;;11.39;30.82;99658.13;4419200;32;34073;-62
2023/04/04 08:36:15;;;;;;;1.80;1.60;;;;;;;11.66;29.83;99652.41;4420290;32;33307;-62
2023/04/04 08:38:43;;;;;;;3.30;1.30;;;;;;;11.40;29.01;99666.06;4421796;32;34624;-63
2023/04/04 08:41:11;;;;;;;1.75;1.25;;;;;;;11.77;27.02;99657.75;4424063;32;33086;-63
2023/04/04 08:43:40;;;;;;;2.00;1.33;;;;;;;10.85;30.09;99662.38;4409999;32;34048;-62
2023/04/04 08:46:09;;;;;;;1.08;0.88;;;;;;;11.64;28.74;99651.66;4424715;32;32225;-61
2023/04/04 08:48:40;;;;;;;2.03;1.73;;;;;;;11.33;30.33;99655.94;4420111;32;33664;-62
2023/04/04 08:51:10;;;;;;;0.93;0.88;;;;;;;11.02;30.28;99649.50;4420896;32;33934;-61
2023/04/04 08:53:37;;;;;;;0.73;0.70;;;;;;;11.22;27.51;99645.25;4421201;32;32964;-61
2023/04/04 08:56:05;;;;;;;1.65;1.30;;;;;;;10.54;30.63;99646.94;4419768;32;33278;-63
2023/04/04 08:58:33;;;;;;;1.23;0.88;;;;;;;10.58;28.09;99629.69;4421067;32;32610;-62
2023/04/04 09:01:01;;;;;;;2.33;1.45;;;;;;;10.64;30.79;99629.22;4425444;32;33976;-63
2023/04/04 09:03:31;;;;;;;1.45;1.08;;;;;;;10.56;30.05;99632.50;4420662;32;34999;-63
2023/04/04 09:06:03;;;;;;;3.15;1.80;;;;;;;10.04;29.54;99631.84;4421411;32;33471;-62
2023/04/04 09:08:30;;;;;;;1.55;1.12;;;;;;;10.54;27.56;99628.22;4419278;32;34806;-62
2023/04/04 09:11:01;;;;;;;1.42;1.30;;;;;;;10.48;27.91;99626.84;4419382;32;34050;-62
2023/04/04 09:13:29;;;;;;;0.95;0.93;;;;;;;9.66;31.66;99628.47;4424909;32;34087;-61
2023/04/04 09:15:57;;;;;;;0.80;0.60;;;;;;;9.98;30.64;99632.34;4434682;32;34797;-62
2023/04/04 09:18:25;;;;;;;10.23;1.12;;;;;;;10.54;27.42;99628.22;4420244;32;32378;-62
2023/04/04 09:20:53;;;;;;;4.62;1.02;;;;;;;10.42;28.13;99621.97;4418485;32;33629;-63
2023/04/04 09:23:22;;;;;;;1.17;1.08;;;;;;;10.09;30.05;99633.38;4423631;32;35196;-62
2023/04/04 09:25:51;;;;;;;2.62;1.92;;;;;;;9.91;30.49;99632.88;4420135;32;34793;-61
2023/04/04 09:28:32;;;;;;;1.12;1.00;;;;;;;10.29;30.18;99634.56;4416085;32;34946;-61
2023/04/04 09:31:01;;;;;;;0.75;0.75;;;;;;;10.75;27.28;99628.37;4433881;32;33920;-61
2023/04/04 09:33:30;;;;;;;10.77;1.33;;;;;;;10.33;30.88;99628.84;4421353;32;33995;-61
2023/04/04 09:36:03;;;;;;;1.08;0.98;;;;;;;11.09;27.09;99622.09;4425927;32;33626;-61
2023/04/04 09:38:31;;;;;;;2.35;1.48;;;;;;;10.34;26.91;99625.22;4414069;32;33617;-62
2023/04/04 09:40:59;;;;;;;5.30;1.58;;;;;;;10.30;28.29;99630.91;4415136;32;32473;-62
2023/04/04 09:43:29;;;;;;;1.70;1.15;;;;;;;10.43;28.97;99611.16;4422072;32;33956;-62
2023/04/04 09:45:58;;;;;;;1.27;1.17;;;;;;;10.15;30.67;99614.19;4420607;32;34411;-61
2023/04/04 09:48:31;;;;;;;1.83;1.10;;;;;;;10.88;27.31;99615.72;4415709;32;33789;-62
2023/04/04 09:50:59;;;;;;;1.35;1.08;;;;;;;10.28;30.55;99623.03;4417460;32;33829;-62
2023/04/04 09:53:27;;;;;;;0.80;0.80;;;;;;;10.51;28.24;99607.88;4420303;32;32752;-62
2023/04/04 09:55:56;;;;;;;1.65;0.90;;;;;;;11.05;26.66;99603.72;4420180;32;34597;-62
2023/04/04 09:58:25;;;;;;;2.40;1.30;;;;;;;10.66;27.48;99596.00;4419999;32;33720;-61
2023/04/04 10:00:56;;;;;;;1.87;0.95;;;;;;;10.35;27.46;99608.19;4420149;32;34080;-62
2023/04/04 10:03:24;;;;;;;2.83;1.23;;;;;;;10.31;28.23;99600.53;4419703;32;32315;-61
2023/04/04 10:06:10;;;;;;;2.85;2.25;;;;;;;10.70;27.05;99613.53;4421389;32;35060;-62
2023/04/04 10:08:42;;;;;;;2.15;1.70;;;;;;;9.65;27.27;99610.75;4419215;32;33836;-62
2023/04/04 10:11:09;;;;;;;2.30;1.40;;;;;;;10.17;30.20;99621.09;4417745;32;32878;-63
2023/04/04 10:13:40;;;;;;;2.10;1.73;;;;;;;10.60;30.35;99607.19;4422677;32;33969;-61
2023/04/04 10:16:09;;;;;;;1.73;1.05;;;;;;;10.79;29.47;99606.63;4422870;32;34803;-63
2023/04/04 10:18:38;;;;;;;1.65;1.20;;;;;;;11.11;28.76;99605.91;4419976;32;33888;-61
2023/04/04 10:21:07;;;;;;;0.73;0.68;;;;;;;10.91;28.85;99610.13;4415940;32;34156;-63
2023/04/04 10:23:39;;;;;;;1.75;1.15;;;;;;;11.46;28.56;99591.50;4416846;32;34252;-63
2023/04/04 10:26:07;;;;;;;2.10;1.48;;;;;;;11.42;28.47;99597.09;4417530;32;33246;-62
2023/04/04 10:28:34;;;;;;;3.20;1.62;;;;;;;11.48;29.51;99594.91;4420590;32;33950;-63
2023/04/04 10:31:21;;;;;;;2.92;1.65;;;;;;;11.75;27.11;99595.38;4421116;32;33877;-62
2023/04/04 10:34:13;;;;;;;1.20;1.10;;;;;;;12.19;25.39;99590.00;4417043;32;33167;-62
2023/04/04 10:36:45;;;;;;;1.77;1.40;;;;;;;11.91;26.48;99586.94;4420744;32;33437;-63
2023/04/04 10:39:19;;;;;;;1.35;1.00;;;;;;;11.34;27.16;99580.81;4418690;32;34844;-61
2023/04/04 10:41:49;;;;;;;1.85;1.08;;;;;;;11.87;27.34;99583.63;4421620;32;33694;-62
2023/04/04 10:44:28;;;;;;;1.05;0.95;;;;;;;11.75;25.81;99581.97;4421540;32;34076;-64
2023/04/04 10:46:57;;;;;;;2.37;1.17;;;;;;;12.40;24.99;99573.91;4420971;32;34509;-62
2023/04/04 10:49:28;;;;;;;2.97;1.05;;;;;;;12.16;26.79;99582.19;4419254;32;33720;-63
2023/04/04 10:51:56;;;;;;;2.58;1.92;;;;;;;12.23;26.01;99576.22;4418835;32;33340;-63
2023/04/04 10:54:25;;;;;;;1.08;0.98;;;;;;;12.41;25.61;99580.97;4418151;32;33898;-63
2023/04/04 10:56:59;;;;;;;1.73;1.15;;;;;;;12.11;26.10;99579.91;4414839;32;33233;-64
2023/04/04 10:59:27;;;;;;;2.45;1.12;;;;;;;12.85;24.18;99577.16;4417248;32;32594;-62
2023/04/04 11:01:59;;;;;;;1.37;0.93;;;;;;;12.51;24.50;99581.91;4415641;32;33776;-62
2023/04/04 11:04:32;;;;;;;2.55;2.03;;;;;;;12.58;25.59;99567.84;4413849;32;33855;-62
2023/04/04 11:07:09;;;;;;;2.75;1.33;;;;;;;12.86;25.85;99573.47;4419578;32;33510;-63
2023/04/04 11:09:53;;;;;;;2.42;1.15;;;;;;;12.91;24.72;99573.09;4416371;32;33619;-63
2023/04/04 11:12:33;;;;;;;4.10;1.50;;;;;;;13.08;25.35;99567.09;4416286;32;35719;-62
2023/04/04 11:15:09;;;;;;;2.58;1.15;;;;;;;12.68;24.48;99567.00;4420477;32;33817;-62
2023/04/04 11:17:53;;;;;;;2.05;1.17;;;;;;;12.77;24.59;99567.06;4419312;32;34620;-63
2023/04/04 11:20:29;;;;;;;1.52;1.17;;;;;;;12.76;25.46;99560.00;4418777;32;33643;-64
2023/04/04 11:23:03;;;;;;;1.17;1.02;;;;;;;12.69;26.55;99569.59;4414047;32;33158;-64
2023/04/04 11:25:32;;;;;;;2.42;1.60;;;;;;;12.61;25.07;99565.84;4417784;32;33825;-63
2023/04/04 11:28:08;;;;;;;1.17;0.82;;;;;;;12.61;24.15;99566.69;4419718;32;33787;-63
2023/04/04 11:30:46;;;;;;;1.35;1.05;;;;;;;12.42;26.23;99559.37;4416096;32;35096;-62
2023/04/04 11:33:27;;;;;;;2.53;1.42;;;;;;;12.27;25.07;99558.84;4420494;32;35311;-64
2023/04/04 11:35:58;;;;;;;7.78;1.85;;;;;;;11.82;26.49;99558.16;4418436;32;34600;-62
2023/04/04 11:38:28;;;;;;;2.22;1.55;;;;;;;11.89;25.85;99556.72;4415993;32;34382;-62
2023/04/04 11:40:56;;;;;;;1.65;1.23;;;;;;;12.12;26.26;99549.41;4416907;32;33808;-63
2023/04/04 11:43:24;;;;;;;1.80;1.40;;;;;;;12.51;24.57;99549.69;4421140;32;35234;-62
2023/04/04 11:45:54;;;;;;;3.33;1.95;;;;;;;12.24;27.01;99559.13;4412464;32;34324;-62
2023/04/04 11:48:22;;;;;;;3.70;1.73;;;;;;;12.25;27.10;99555.44;4421448;32;34021;-62